Time;durP1;ratioP1;P1;durP2;ratioP2;P2;SDS_P1;SDS_P2;PMS_P1;PMS_P2;Temp;Humidity;BMP_temperature;BMP_pressure;BME280_temperature;BME280_humidity;BME280_pressure;Samples;Min_cycle;Max_cycle;Signal;HPM_P1;HPM_P2
2022/09/24 00:01:25;;;;;;;1.80;0.70;;;12.70;99.90;;;;;;6082225;23;20026;-81
2022/09/24 00:04:03;;;;;;;0.52;0.40;;;12.70;99.90;;;;;;6082741;23;20029;-81
2022/09/24 00:06:34;;;;;;;1.48;0.90;;;12.60;99.90;;;;;;6059183;23;20101;-80
2022/09/24 00:09:01;;;;;;;1.13;0.63;;;12.60;99.90;;;;;;6083158;23;20447;-81
2022/09/24 00:11:28;;;;;;;0.60;0.60;;;12.50;99.90;;;;;;6056966;23;20317;-80
2022/09/24 00:13:55;;;;;;;1.55;0.73;;;12.50;99.90;;;;;;6081229;23;20340;-80
2022/09/24 00:16:24;;;;;;;1.23;0.68;;;12.50;99.90;;;;;;6058921;23;20018;-79
2022/09/24 00:18:51;;;;;;;0.70;0.40;;;12.40;99.90;;;;;;6083537;23;20438;-79
2022/09/24 00:21:20;;;;;;;0.95;0.70;;;12.40;99.90;;;;;;6083689;23;20030;-80
2022/09/24 00:23:52;;;;;;;0.43;0.43;;;12.30;99.90;;;;;;6083296;23;20180;-80
2022/09/24 00:29:05;;;;;;;0.73;0.57;;;12.30;99.90;;;;;;6083649;23;20101;-79
2022/09/24 00:31:31;;;;;;;0.60;0.60;;;12.20;99.90;;;;;;6082474;23;20316;-80
2022/09/24 00:34:00;;;;;;;0.93;0.50;;;12.20;99.90;;;;;;6059056;23;20038;-79
2022/09/24 00:36:27;;;;;;;0.80;0.40;;;12.20;99.90;;;;;;6082842;23;20022;-79
2022/09/24 00:38:55;;;;;;;0.75;0.38;;;12.20;99.90;;;;;;6084612;23;20022;-79
2022/09/24 00:41:24;;;;;;;0.73;0.50;;;12.20;99.90;;;;;;6059797;23;20026;-80
2022/09/24 00:43:51;;;;;;;0.75;0.60;;;12.10;99.90;;;;;;6082742;23;20023;-79
2022/09/24 00:46:37;;;;;;;0.95;0.50;;;12.10;99.90;;;;;;6082379;23;20027;-79
2022/09/24 00:49:17;;;;;;;0.35;0.32;;;12.00;99.90;;;;;;6083334;23;20036;-80
2022/09/24 00:51:45;;;;;;;0.50;0.32;;;12.00;99.90;;;;;;6081760;23;20026;-80
2022/09/24 00:54:19;;;;;;;1.17;0.57;;;12.00;99.90;;;;;;6059613;23;20026;-80
2022/09/24 00:56:46;;;;;;;1.05;0.52;;;12.00;99.90;;;;;;6085020;23;20022;-80
2022/09/24 00:59:15;;;;;;;0.47;0.40;;;11.90;99.90;;;;;;6083863;23;20114;-80
2022/09/24 01:01:43;;;;;;;0.63;0.50;;;11.90;99.90;;;;;;6083041;23;20030;-80
2022/09/24 01:04:10;;;;;;;0.25;0.25;;;11.90;99.90;;;;;;6058903;23;20039;-80
2022/09/24 01:06:38;;;;;;;0.68;0.30;;;11.90;99.90;;;;;;6082393;23;20356;-80
2022/09/24 01:09:05;;;;;;;0.57;0.40;;;11.80;99.90;;;;;;6059030;23;20022;-80
2022/09/24 01:11:43;;;;;;;0.63;0.47;;;11.80;99.90;;;;;;6058785;23;20331;-80
2022/09/24 01:14:18;;;;;;;0.85;0.40;;;11.80;99.90;;;;;;6085490;23;20041;-80
2022/09/24 01:16:46;;;;;;;0.40;0.40;;;11.80;99.90;;;;;;6082389;23;20370;-79
2022/09/24 01:19:31;;;;;;;0.35;0.30;;;11.80;99.90;;;;;;6059241;23;20314;-80
2022/09/24 01:22:18;;;;;;;0.75;0.50;;;11.70;99.90;;;;;;6081527;23;20027;-80
2022/09/24 01:24:57;;;;;;;0.57;0.30;;;11.70;99.90;;;;;;6083094;23;20179;-80
2022/09/24 01:27:27;;;;;;;0.47;0.40;;;11.70;99.90;;;;;;6084850;23;20026;-80
2022/09/24 01:30:01;;;;;;;0.40;0.30;;;11.60;99.90;;;;;;6083060;23;20300;-81
2022/09/24 01:32:33;;;;;;;0.57;0.30;;;11.60;99.90;;;;;;6085356;23;20042;-80
2022/09/24 01:35:23;;;;;;;0.30;0.30;;;11.60;99.90;;;;;;6085708;23;20105;-80
2022/09/24 01:37:57;;;;;;;0.50;0.30;;;11.60;99.90;;;;;;6055844;23;20033;-80
2022/09/24 01:40:25;;;;;;;0.30;0.30;;;11.50;99.90;;;;;;6085313;23;20022;-80
2022/09/24 01:42:52;;;;;;;0.20;0.20;;;11.50;99.90;;;;;;6061564;23;20027;-80
2022/09/24 01:45:19;;;;;;;0.28;0.20;;;11.40;99.90;;;;;;6086515;23;20531;-80
2022/09/24 01:47:47;;;;;;;1.33;0.40;;;11.50;99.90;;;;;;6066285;23;20026;-79
2022/09/24 01:50:16;;;;;;;0.75;0.40;;;11.40;99.90;;;;;;6085743;23;20486;-80
2022/09/24 01:52:57;;;;;;;1.63;0.40;;;11.30;99.90;;;;;;6061421;23;20061;-80
2022/09/24 01:55:25;;;;;;;0.25;0.25;;;11.20;99.90;;;;;;6085168;23;20015;-80
2022/09/24 01:58:08;;;;;;;0.50;0.50;;;11.20;99.90;;;;;;6061486;23;20023;-80
2022/09/24 02:00:39;;;;;;;0.77;0.50;;;11.20;99.90;;;;;;6061631;23;20030;-80
2022/09/24 02:03:14;;;;;;;0.77;0.40;;;11.10;99.90;;;;;;6083742;23;20050;-79
2022/09/24 02:05:49;;;;;;;0.90;0.50;;;11.10;99.90;;;;;;6085153;23;20036;-80
2022/09/24 02:08:21;;;;;;;1.58;0.30;;;11.00;99.90;;;;;;6084260;23;20023;-81
2022/09/24 02:11:13;;;;;;;0.65;0.40;;;11.00;99.90;;;;;;6060986;23;20026;-80
2022/09/24 02:13:49;;;;;;;0.47;0.32;;;10.90;99.90;;;;;;6086025;23;20046;-80
2022/09/24 02:16:20;;;;;;;0.40;0.40;;;10.90;99.90;;;;;;6085889;23;20019;-80
2022/09/24 02:18:50;;;;;;;0.40;0.40;;;10.80;99.90;;;;;;6085106;23;20030;-80
2022/09/24 02:21:17;;;;;;;0.50;0.45;;;10.80;99.90;;;;;;6060947;23;20026;-80
2022/09/24 02:23:46;;;;;;;0.50;0.50;;;10.80;99.90;;;;;;6084047;23;20094;-80
2022/09/24 02:26:14;;;;;;;0.40;0.40;;;10.70;99.90;;;;;;6061432;23;20478;-80
2022/09/24 02:28:41;;;;;;;1.10;0.60;;;10.70;99.90;;;;;;6109249;23;20030;-80
2022/09/24 02:31:12;;;;;;;0.50;0.43;;;10.70;99.90;;;;;;6085167;23;20046;-80
2022/09/24 02:36:27;;;;;;;1.15;0.70;;;10.60;99.90;;;;;;6084765;23;20057;-80
2022/09/24 02:38:55;;;;;;;1.45;0.70;;;10.70;99.90;;;;;;6084972;23;20022;-80
2022/09/24 02:41:23;;;;;;;1.92;0.60;;;10.90;99.90;;;;;;6060032;23;20022;-80
2022/09/24 02:43:50;;;;;;;1.30;0.90;;;11.00;99.90;;;;;;6084505;23;20018;-80
2022/09/24 02:46:17;;;;;;;4.22;1.95;;;11.10;99.90;;;;;;6084021;23;20030;-80
2022/09/24 02:48:45;;;;;;;6.35;3.25;;;11.20;99.90;;;;;;6084541;23;20533;-80
2022/09/24 02:51:12;;;;;;;3.30;2.20;;;11.30;99.90;;;;;;6084411;23;20029;-80
2022/09/24 02:53:39;;;;;;;3.20;2.25;;;11.30;99.90;;;;;;6083666;23;20037;-80
2022/09/24 02:56:06;;;;;;;3.13;2.25;;;11.40;99.90;;;;;;6061558;23;20030;-80
2022/09/24 02:58:34;;;;;;;2.92;2.35;;;11.50;99.90;;;;;;6084571;23;20394;-80
2022/09/24 03:01:02;;;;;;;3.08;2.40;;;11.50;99.90;;;;;;6084805;23;20026;-80
2022/09/24 03:03:29;;;;;;;5.22;4.07;;;11.50;99.90;;;;;;6059559;23;20019;-80
2022/09/24 03:05:56;;;;;;;4.93;3.83;;;11.50;99.90;;;;;;6060586;23;20022;-80
2022/09/24 03:08:23;;;;;;;5.88;4.25;;;11.50;99.90;;;;;;6083421;23;20022;-80
2022/09/24 03:10:51;;;;;;;4.40;3.55;;;11.50;99.90;;;;;;6060933;23;20056;-79
2022/09/24 03:13:18;;;;;;;3.88;2.92;;;11.60;99.90;;;;;;6084464;23;20022;-80
2022/09/24 03:15:45;;;;;;;3.00;2.17;;;11.60;99.90;;;;;;6084627;23;20310;-80
2022/09/24 03:18:12;;;;;;;3.40;2.38;;;11.70;99.90;;;;;;6084222;23;20129;-80
2022/09/24 03:20:40;;;;;;;3.28;2.45;;;11.70;99.90;;;;;;6084533;23;20132;-80
2022/09/24 03:23:07;;;;;;;5.82;3.30;;;11.80;99.90;;;;;;6060110;23;20042;-80
2022/09/24 03:25:34;;;;;;;5.05;3.33;;;11.80;99.90;;;;;;6084276;23;20018;-80
2022/09/24 03:28:02;;;;;;;3.83;2.92;;;11.80;99.90;;;;;;6084265;23;20024;-80
2022/09/24 03:33:14;;;;;;;3.03;2.15;;;11.90;99.90;;;;;;6083817;23;20022;-80
2022/09/24 03:35:41;;;;;;;3.00;1.88;;;11.90;99.90;;;;;;6083581;23;20471;-80
2022/09/24 03:38:08;;;;;;;2.80;2.17;;;12.00;99.90;;;;;;6083898;23;20421;-80
2022/09/24 03:40:35;;;;;;;2.25;1.60;;;12.10;99.90;;;;;;6060224;23;20230;-80
2022/09/24 03:43:02;;;;;;;2.28;1.70;;;12.10;99.90;;;;;;6084557;23;20328;-81
2022/09/24 03:45:29;;;;;;;2.22;1.80;;;12.20;99.90;;;;;;6108773;23;20018;-80
2022/09/24 03:47:56;;;;;;;2.35;1.55;;;12.20;99.90;;;;;;6083546;23;20026;-80
2022/09/24 03:50:23;;;;;;;1.77;1.30;;;12.30;99.90;;;;;;6061102;23;20089;-81
2022/09/24 03:52:49;;;;;;;1.48;1.15;;;12.30;99.90;;;;;;6082742;23;20448;-80
2022/09/24 03:55:17;;;;;;;2.47;1.00;;;12.30;99.90;;;;;;6060493;23;20025;-80
2022/09/24 03:57:44;;;;;;;0.98;0.80;;;12.30;99.90;;;;;;6084333;23;20528;-80
2022/09/24 04:00:11;;;;;;;1.95;1.08;;;12.20;99.90;;;;;;6084555;23;20022;-80
2022/09/24 04:02:39;;;;;;;1.10;1.00;;;12.20;99.90;;;;;;6083624;23;20065;-80
2022/09/24 04:05:06;;;;;;;1.27;1.13;;;12.10;99.90;;;;;;6089073;23;20022;-79
2022/09/24 04:07:33;;;;;;;1.23;1.02;;;12.10;99.90;;;;;;6063731;23;20490;-79
2022/09/24 04:10:00;;;;;;;1.08;0.82;;;12.10;99.90;;;;;;6089898;23;20028;-79
2022/09/24 04:12:28;;;;;;;1.50;1.23;;;12.10;99.90;;;;;;6065870;23;20022;-80
2022/09/24 04:14:55;;;;;;;2.08;1.20;;;12.10;99.90;;;;;;6089778;23;20129;-80
2022/09/24 04:17:22;;;;;;;2.67;1.77;;;12.10;99.90;;;;;;6064360;23;20338;-81
2022/09/24 04:19:49;;;;;;;3.13;1.98;;;12.20;99.90;;;;;;6065605;23;20354;-80
2022/09/24 04:22:16;;;;;;;3.40;2.53;;;12.10;99.90;;;;;;6065209;23;20026;-80
2022/09/24 04:24:44;;;;;;;3.85;2.80;;;12.10;99.90;;;;;;6090798;23;20061;-80
2022/09/24 04:27:10;;;;;;;3.45;2.35;;;12.00;99.90;;;;;;6089086;23;20071;-81
2022/09/24 04:29:37;;;;;;;2.97;2.08;;;12.00;99.90;;;;;;6066079;23;20018;-81
2022/09/24 04:32:04;;;;;;;3.53;2.38;;;11.90;99.90;;;;;;6088855;23;20058;-80
2022/09/24 04:34:32;;;;;;;2.08;1.85;;;11.80;99.90;;;;;;6089449;23;20028;-81
2022/09/24 04:36:59;;;;;;;2.20;1.58;;;11.80;99.90;;;;;;6089508;23;20018;-80
2022/09/24 04:39:26;;;;;;;1.90;1.20;;;11.70;99.90;;;;;;6089211;23;20028;-79
2022/09/24 04:41:53;;;;;;;2.60;1.35;;;11.70;99.90;;;;;;6091335;23;20239;-79
2022/09/24 04:44:20;;;;;;;2.80;1.58;;;11.70;99.90;;;;;;6091751;23;20352;-78
2022/09/24 04:46:47;;;;;;;2.30;1.48;;;11.70;99.90;;;;;;6090465;23;20033;-79
2022/09/24 04:49:14;;;;;;;3.25;1.83;;;11.60;99.90;;;;;;6068072;23;20328;-79
2022/09/24 04:51:41;;;;;;;2.85;1.60;;;11.60;99.90;;;;;;6066192;23;20033;-80
2022/09/24 04:54:08;;;;;;;2.45;1.33;;;11.60;99.90;;;;;;6067933;23;20068;-79
2022/09/24 04:56:36;;;;;;;2.00;1.60;;;11.50;99.90;;;;;;6067646;23;20100;-79
2022/09/24 04:59:03;;;;;;;2.20;1.75;;;11.50;99.90;;;;;;6091624;23;20025;-80
2022/09/24 05:01:29;;;;;;;1.58;1.23;;;11.50;99.90;;;;;;6066315;23;20049;-79
2022/09/24 05:03:56;;;;;;;2.28;1.13;;;11.40;99.90;;;;;;6087697;23;20439;-79
2022/09/24 05:06:23;;;;;;;1.95;1.23;;;11.40;99.90;;;;;;6088549;23;20089;-79
2022/09/24 05:08:50;;;;;;;1.90;1.23;;;11.30;99.90;;;;;;6064663;23;20024;-78
2022/09/24 05:11:18;;;;;;;1.92;1.20;;;11.30;99.90;;;;;;6064613;23;20451;-79
2022/09/24 05:13:45;;;;;;;1.17;1.05;;;11.20;99.90;;;;;;6064671;23;20018;-79
2022/09/24 05:16:12;;;;;;;1.83;1.08;;;11.20;99.90;;;;;;6064858;23;20030;-79
2022/09/24 05:18:40;;;;;;;1.48;1.23;;;11.10;99.90;;;;;;6088055;23;20459;-79
2022/09/24 05:21:07;;;;;;;1.10;0.90;;;11.10;99.90;;;;;;6063640;23;20026;-79
2022/09/24 05:23:34;;;;;;;1.38;0.95;;;11.10;99.90;;;;;;6087500;23;20101;-79
2022/09/24 05:28:46;;;;;;;2.35;1.15;;;11.00;99.90;;;;;;6092442;23;20053;-79
2022/09/24 05:31:13;;;;;;;2.17;1.23;;;11.00;99.90;;;;;;6112127;23;20413;-80
2022/09/24 05:33:39;;;;;;;1.85;1.10;;;10.90;99.90;;;;;;6063710;23;20037;-80
2022/09/24 05:36:06;;;;;;;3.60;1.80;;;10.90;99.90;;;;;;6088039;23;20032;-79
2022/09/24 05:38:33;;;;;;;2.05;1.30;;;10.90;99.90;;;;;;6087722;23;20112;-79
2022/09/24 05:41:00;;;;;;;1.70;1.48;;;10.90;99.90;;;;;;6088467;23;20109;-80
2022/09/24 05:43:27;;;;;;;1.70;1.27;;;10.80;99.90;;;;;;6088077;23;20022;-79
2022/09/24 05:45:55;;;;;;;1.60;1.00;;;10.80;99.90;;;;;;6088329;23;20118;-80
2022/09/24 05:48:23;;;;;;;1.08;0.90;;;10.80;99.90;;;;;;6087152;23;20061;-79
2022/09/24 05:50:54;;;;;;;1.23;0.95;;;10.80;99.90;;;;;;6087553;23;20113;-80
2022/09/24 05:53:22;;;;;;;1.25;0.88;;;10.80;99.90;;;;;;6087199;23;20423;-81
2022/09/24 05:55:48;;;;;;;0.80;0.73;;;10.70;99.90;;;;;;6064272;23;20021;-80
2022/09/24 05:58:16;;;;;;;0.52;0.52;;;10.70;99.90;;;;;;6064330;23;20036;-81
2022/09/24 06:00:46;;;;;;;1.70;1.20;;;10.70;99.90;;;;;;6088387;23;20022;-80
2022/09/24 06:03:15;;;;;;;1.83;0.98;;;10.70;99.90;;;;;;6063609;23;20042;-80
2022/09/24 06:05:45;;;;;;;1.00;0.85;;;10.70;99.90;;;;;;6064655;23;20073;-79
2022/09/24 06:08:14;;;;;;;1.65;1.00;;;10.70;99.90;;;;;;6086742;23;20021;-78
2022/09/24 06:10:44;;;;;;;1.25;1.15;;;10.60;99.90;;;;;;6065715;23;20113;-80
2022/09/24 06:13:11;;;;;;;1.17;0.90;;;10.70;99.90;;;;;;6088180;23;20025;-80
2022/09/24 06:15:41;;;;;;;1.42;1.05;;;10.70;99.90;;;;;;6064472;23;20018;-80
2022/09/24 06:18:09;;;;;;;2.10;1.30;;;10.70;99.90;;;;;;6086786;23;20026;-81
2022/09/24 06:20:36;;;;;;;2.20;1.40;;;10.80;99.90;;;;;;6063667;23;20480;-80
2022/09/24 06:23:03;;;;;;;1.35;1.10;;;10.80;99.90;;;;;;6062781;23;20040;-80
2022/09/24 06:25:30;;;;;;;1.73;1.20;;;10.80;99.90;;;;;;6088199;23;20022;-79
2022/09/24 06:28:01;;;;;;;1.50;1.13;;;10.80;99.90;;;;;;6087889;23;20113;-79
2022/09/24 06:30:29;;;;;;;2.00;1.20;;;10.90;99.90;;;;;;6085879;23;20430;-80
2022/09/24 06:33:04;;;;;;;1.38;1.00;;;10.90;99.90;;;;;;6082756;23;20615;-80
2022/09/24 06:35:34;;;;;;;1.48;1.20;;;10.90;99.90;;;;;;6059717;23;20025;-80
2022/09/24 06:38:02;;;;;;;1.45;1.08;;;10.90;99.90;;;;;;6083330;23;20029;-80
2022/09/24 06:40:29;;;;;;;1.80;1.10;;;10.90;99.90;;;;;;6083851;23;20032;-80
2022/09/24 06:43:02;;;;;;;2.42;1.35;;;11.00;99.90;;;;;;6084954;23;20043;-81
2022/09/24 06:45:29;;;;;;;2.97;1.80;;;11.00;99.90;;;;;;6083440;23;20022;-80
2022/09/24 06:47:57;;;;;;;4.70;1.92;;;11.10;99.90;;;;;;6081818;23;20024;-80
2022/09/24 06:50:25;;;;;;;2.15;1.80;;;11.10;99.90;;;;;;6083872;23;20018;-80
2022/09/24 06:52:52;;;;;;;3.63;2.40;;;11.20;99.90;;;;;;6059290;23;20025;-79
2022/09/24 06:55:19;;;;;;;2.40;1.85;;;11.20;99.90;;;;;;6083822;23;20026;-80
2022/09/24 06:57:46;;;;;;;2.38;1.67;;;11.20;99.90;;;;;;6059884;23;20030;-80
2022/09/24 07:00:13;;;;;;;3.20;2.15;;;11.30;99.90;;;;;;6089879;23;20026;-81
2022/09/24 07:02:40;;;;;;;3.15;2.08;;;11.30;99.90;;;;;;6059069;23;20029;-80
2022/09/24 07:05:08;;;;;;;2.40;1.60;;;11.40;99.90;;;;;;6082666;23;20026;-80
2022/09/24 07:07:36;;;;;;;1.80;1.38;;;11.40;99.90;;;;;;6082884;23;20026;-80
2022/09/24 07:10:05;;;;;;;2.53;1.92;;;11.50;99.90;;;;;;6084790;23;20565;-80
2022/09/24 07:12:33;;;;;;;3.63;2.15;;;11.50;99.90;;;;;;6084003;23;20021;-80
2022/09/24 07:15:00;;;;;;;3.40;2.42;;;11.60;99.90;;;;;;6084520;23;20057;-79
2022/09/24 07:17:27;;;;;;;2.75;2.25;;;11.70;99.90;;;;;;6083096;23;20749;-80
2022/09/24 07:19:59;;;;;;;3.90;2.45;;;11.70;99.90;;;;;;6085023;23;20341;-80
2022/09/24 07:22:26;;;;;;;5.70;2.85;;;11.80;99.90;;;;;;6058167;23;20033;-81
2022/09/24 07:24:53;;;;;;;6.18;3.42;;;11.80;99.90;;;;;;6059237;23;20594;-80
2022/09/24 07:27:21;;;;;;;5.50;3.35;;;11.80;99.90;;;;;;6059641;23;20439;-80
2022/09/24 07:29:48;;;;;;;4.57;2.97;;;11.80;99.90;;;;;;6083943;23;20344;-80
2022/09/24 07:32:16;;;;;;;4.35;2.85;;;11.80;99.90;;;;;;6059008;23;20462;-79
2022/09/24 07:34:44;;;;;;;3.38;2.95;;;11.80;99.90;;;;;;6109910;23;20050;-81
2022/09/24 07:37:12;;;;;;;3.20;2.42;;;11.80;99.90;;;;;;6059738;23;20404;-82
2022/09/24 07:39:39;;;;;;;3.60;2.30;;;11.80;99.90;;;;;;6084050;23;20022;-82
2022/09/24 07:42:07;;;;;;;3.72;2.70;;;11.80;99.90;;;;;;6083844;23;20026;-82
2022/09/24 07:44:37;;;;;;;3.28;2.55;;;11.80;99.90;;;;;;6059975;23;20346;-81
2022/09/24 07:47:03;;;;;;;2.33;1.85;;;11.90;99.90;;;;;;6082992;23;20466;-81
2022/09/24 07:49:31;;;;;;;3.85;2.50;;;11.90;99.90;;;;;;6083789;23;20048;-82
2022/09/24 07:51:58;;;;;;;9.07;5.03;;;12.00;99.90;;;;;;6107236;23;20041;-82
2022/09/24 07:54:26;;;;;;;5.03;3.95;;;11.90;99.90;;;;;;6060044;23;20030;-81
2022/09/24 07:56:53;;;;;;;3.55;2.88;;;11.90;99.90;;;;;;6060418;23;20125;-82
2022/09/24 07:59:20;;;;;;;3.58;2.88;;;12.00;99.90;;;;;;6084730;23;20032;-82
2022/09/24 08:01:47;;;;;;;6.38;3.45;;;12.10;99.90;;;;;;6059471;23;20112;-82
2022/09/24 08:04:16;;;;;;;5.93;3.95;;;12.10;99.90;;;;;;6083688;23;20109;-82
2022/09/24 08:06:44;;;;;;;4.00;3.22;;;12.20;99.90;;;;;;6083424;23;20300;-82
2022/09/24 08:09:15;;;;;;;7.00;4.03;;;12.30;99.90;;;;;;6061464;23;20066;-82
2022/09/24 08:11:43;;;;;;;4.65;2.90;;;12.30;99.90;;;;;;6084499;23;20034;-82
2022/09/24 08:14:11;;;;;;;6.78;3.35;;;12.40;99.90;;;;;;6084215;23;20022;-82
2022/09/24 08:16:39;;;;;;;6.78;4.20;;;12.50;99.90;;;;;;6085142;23;20350;-82
2022/09/24 08:19:12;;;;;;;4.13;3.30;;;12.50;99.90;;;;;;6062799;23;20121;-82
2022/09/24 08:21:39;;;;;;;3.92;2.90;;;12.60;99.90;;;;;;6062111;23;20076;-81
2022/09/24 08:24:06;;;;;;;5.18;3.35;;;12.60;99.90;;;;;;6086109;23;20383;-82
2022/09/24 08:26:33;;;;;;;4.05;3.15;;;12.60;99.90;;;;;;6062149;23;20058;-81
2022/09/24 08:29:00;;;;;;;4.78;4.10;;;12.60;99.90;;;;;;6086108;23;20048;-83
2022/09/24 08:31:29;;;;;;;4.88;3.40;;;12.70;99.90;;;;;;6060907;23;20514;-80
2022/09/24 08:33:56;;;;;;;3.38;3.08;;;12.80;99.90;;;;;;6110772;23;20029;-82
2022/09/24 08:36:23;;;;;;;5.30;3.45;;;13.00;99.90;;;;;;6085659;23;20022;-80
2022/09/24 08:38:53;;;;;;;6.00;4.70;;;13.00;99.90;;;;;;6085998;23;20026;-81
2022/09/24 08:41:52;;;;;;;5.80;4.20;;;13.00;99.90;;;;;;6062273;23;20032;-81
2022/09/24 08:47:31;;;;;;;6.20;4.20;;;13.10;99.90;;;;;;6088021;23;20026;-82
2022/09/24 08:50:16;;;;;;;5.68;3.33;;;13.20;99.90;;;;;;6063743;23;20222;-82
2022/09/24 08:52:43;;;;;;;4.32;3.30;;;13.30;99.90;;;;;;6063752;23;20110;-82
2022/09/24 08:55:26;;;;;;;3.67;2.95;;;13.30;99.90;;;;;;6086168;23;20588;-81
2022/09/24 08:58:11;;;;;;;7.38;3.53;;;13.50;99.90;;;;;;6085036;23;20030;-82
2022/09/24 09:00:49;;;;;;;5.13;3.85;;;13.50;99.90;;;;;;6087108;23;20378;-84
2022/09/24 09:03:48;;;;;;;5.85;3.65;;;13.60;99.90;;;;;;6056193;23;20026;-81
2022/09/24 09:06:42;;;;;;;4.82;2.88;;;13.70;99.90;;;;;;6079805;23;20023;-81
2022/09/24 09:09:16;;;;;;;3.85;2.85;;;13.90;99.90;;;;;;6080257;23;20460;-80
2022/09/24 09:12:00;;;;;;;4.43;2.60;;;14.00;99.90;;;;;;6056020;23;20034;-80
2022/09/24 09:14:39;;;;;;;5.15;3.00;;;14.10;99.90;;;;;;6056598;23;20106;-81
2022/09/24 09:17:26;;;;;;;3.63;2.55;;;14.10;99.90;;;;;;6055869;23;20026;-81
2022/09/24 09:19:55;;;;;;;5.35;3.53;;;14.20;99.90;;;;;;6057971;23;20026;-81
2022/09/24 09:22:43;;;;;;;4.95;3.58;;;14.30;99.90;;;;;;6055426;23;20042;-80
2022/09/24 09:25:24;;;;;;;4.78;3.38;;;14.20;99.90;;;;;;6073775;23;20518;-81
2022/09/24 09:27:59;;;;;;;4.35;2.85;;;14.30;99.90;;;;;;6055851;23;20028;-82
2022/09/24 09:30:27;;;;;;;4.43;2.80;;;14.30;99.90;;;;;;6079769;23;20086;-82
2022/09/24 09:33:07;;;;;;;5.05;3.35;;;14.30;99.90;;;;;;6079336;23;20038;-80
2022/09/24 09:35:53;;;;;;;5.05;2.60;;;14.30;99.90;;;;;;6079394;23;20633;-81
2022/09/24 09:38:55;;;;;;;5.53;3.20;;;14.20;99.90;;;;;;6079930;23;20060;-81
2022/09/24 09:42:02;;;;;;;3.95;2.70;;;14.20;99.90;;;;;;6047936;23;20022;-82
2022/09/24 09:44:30;;;;;;;3.42;2.33;;;14.20;99.90;;;;;;6081682;23;20114;-82
2022/09/24 09:47:22;;;;;;;3.08;2.35;;;14.30;99.90;;;;;;6055592;23;20022;-81
2022/09/24 09:49:51;;;;;;;3.92;1.88;;;14.40;99.90;;;;;;6081416;23;20022;-82
2022/09/24 09:52:19;;;;;;;2.60;2.03;;;14.60;99.90;;;;;;6055824;23;20030;-80
2022/09/24 09:54:47;;;;;;;2.53;1.48;;;14.60;99.90;;;;;;6055845;23;20023;-82
2022/09/24 09:57:19;;;;;;;2.70;1.65;;;14.70;99.90;;;;;;6079168;23;20034;-82
2022/09/24 09:59:49;;;;;;;3.05;2.08;;;14.80;99.90;;;;;;6056154;23;20022;-81
2022/09/24 10:02:48;;;;;;;2.65;1.42;;;14.90;99.90;;;;;;6055486;23;20040;-82
2022/09/24 10:05:20;;;;;;;1.88;1.17;;;15.20;99.90;;;;;;6067862;23;20026;-79
2022/09/24 10:07:58;;;;;;;2.50;1.00;;;15.40;99.90;;;;;;6079016;23;20022;-82
2022/09/24 10:10:26;;;;;;;3.08;1.70;;;15.60;99.90;;;;;;6056678;23;20033;-81
2022/09/24 10:13:14;;;;;;;2.15;1.10;;;15.60;99.90;;;;;;6079602;23;20057;-81
2022/09/24 10:15:55;;;;;;;2.08;1.23;;;15.70;99.90;;;;;;6084067;23;20147;-81
2022/09/24 10:18:33;;;;;;;2.85;1.65;;;15.80;99.90;;;;;;6082054;23;20435;-81
2022/09/24 10:21:04;;;;;;;2.00;1.23;;;16.00;99.90;;;;;;6086680;23;20447;-81
2022/09/24 10:23:43;;;;;;;4.22;1.17;;;16.20;99.90;;;;;;6062319;23;20026;-81
2022/09/24 10:26:11;;;;;;;2.53;1.27;;;16.20;99.90;;;;;;6086035;23;20045;-81
2022/09/24 10:31:30;;;;;;;1.77;1.02;;;16.30;99.90;;;;;;6066721;23;20046;-80
2022/09/24 10:33:57;;;;;;;1.90;1.23;;;16.30;99.90;;;;;;6059023;23;20097;-81
2022/09/24 10:36:26;;;;;;;2.55;1.13;;;16.30;99.90;;;;;;6058763;23;20328;-81
2022/09/24 10:39:31;;;;;;;2.35;0.95;;;16.40;99.90;;;;;;6086335;23;20033;-81
2022/09/24 10:41:58;;;;;;;1.45;0.90;;;16.40;99.90;;;;;;6066987;23;20720;-81
2022/09/24 10:44:31;;;;;;;1.15;0.60;;;16.50;99.90;;;;;;6086637;23;20052;-81
2022/09/24 10:47:31;;;;;;;1.40;0.88;;;16.70;99.90;;;;;;6061905;23;20022;-82
2022/09/24 10:50:16;;;;;;;1.15;0.73;;;16.90;99.90;;;;;;6087051;23;20036;-81
2022/09/24 10:52:46;;;;;;;0.40;0.40;;;17.10;99.90;;;;;;6086281;23;20394;-81
2022/09/24 10:55:28;;;;;;;1.48;0.50;;;17.40;99.90;;;;;;6087480;23;20023;-81
2022/09/24 10:58:01;;;;;;;0.77;0.60;;;17.60;99.90;;;;;;6084160;23;20106;-82
2022/09/24 11:00:38;;;;;;;1.08;0.70;;;17.80;99.90;;;;;;6082728;23;20019;-82
2022/09/24 11:03:32;;;;;;;3.90;1.45;;;17.70;99.90;;;;;;6084181;23;20098;-82
2022/09/24 11:06:19;;;;;;;2.33;1.20;;;17.50;99.90;;;;;;6086925;23;20149;-82
2022/09/24 11:08:55;;;;;;;2.22;1.10;;;17.50;99.90;;;;;;6062981;23;20074;-82
2022/09/24 11:11:33;;;;;;;1.15;0.80;;;17.60;99.90;;;;;;6113198;23;20030;-82
2022/09/24 11:14:19;;;;;;;1.77;0.80;;;17.60;99.90;;;;;;6113693;23;20026;-82
2022/09/24 11:17:14;;;;;;;1.45;0.60;;;17.50;99.90;;;;;;6086360;23;20030;-82
2022/09/24 11:20:06;;;;;;;2.05;0.60;;;17.60;99.90;;;;;;6068538;23;20109;-82
2022/09/24 11:22:57;;;;;;;1.25;0.60;;;17.70;99.90;;;;;;6112302;23;20040;-83
2022/09/24 11:25:32;;;;;;;1.60;0.93;;;18.00;99.90;;;;;;6087623;23;20044;-81
2022/09/24 11:28:22;;;;;;;1.70;1.00;;;18.20;99.90;;;;;;6087624;23;20034;-82
2022/09/24 11:31:11;;;;;;;1.08;0.80;;;18.00;99.90;;;;;;6088056;23;20052;-82
2022/09/24 11:34:06;;;;;;;0.68;0.43;;;18.10;99.90;;;;;;6113163;23;20468;-85
2022/09/24 11:36:59;;;;;;;0.63;0.40;;;18.20;99.90;;;;;;6086700;23;20531;-82
2022/09/24 11:39:28;;;;;;;0.95;0.60;;;18.40;99.90;;;;;;6087540;23;20379;-82
2022/09/24 11:42:02;;;;;;;0.73;0.40;;;18.40;99.90;;;;;;6112781;23;20022;-83
2022/09/24 11:45:06;;;;;;;2.15;0.77;;;18.40;99.90;;;;;;6087585;23;20080;-83
2022/09/24 11:47:53;;;;;;;0.77;0.63;;;18.10;99.90;;;;;;6112233;23;20416;-82
2022/09/24 11:50:26;;;;;;;1.38;0.77;;;18.00;99.90;;;;;;6087330;23;20113;-81
2022/09/24 11:53:13;;;;;;;1.67;0.65;;;18.30;99.90;;;;;;6112112;23;20785;-82
2022/09/24 11:55:52;;;;;;;2.42;0.70;;;18.40;99.90;;;;;;6087357;23;20026;-82
2022/09/24 11:58:31;;;;;;;3.08;0.90;;;18.60;99.90;;;;;;6087400;23;20500;-82
2022/09/24 12:01:25;;;;;;;0.63;0.45;;;19.00;99.90;;;;;;6063814;23;20022;-82
2022/09/24 12:04:01;;;;;;;1.50;0.88;;;19.40;99.90;;;;;;6092418;23;20029;-81
2022/09/24 12:06:41;;;;;;;1.30;0.57;;;19.70;99.90;;;;;;6089115;23;20097;-81
2022/09/24 12:09:18;;;;;;;1.73;0.88;;;19.90;99.90;;;;;;6088507;23;20101;-82
2022/09/24 12:12:06;;;;;;;1.13;0.50;;;19.80;99.90;;;;;;6087405;23;20033;-81
2022/09/24 12:14:55;;;;;;;1.50;0.75;;;19.80;99.90;;;;;;6087209;23;20101;-81
2022/09/24 12:17:28;;;;;;;0.70;0.50;;;20.10;99.90;;;;;;6086200;23;20026;-81
2022/09/24 12:20:01;;;;;;;0.70;0.50;;;20.50;99.90;;;;;;6086990;23;20570;-81
2022/09/24 12:22:28;;;;;;;0.47;0.40;;;20.60;99.90;;;;;;6063160;23;20029;-82
2022/09/24 12:24:58;;;;;;;0.60;0.50;;;20.30;99.90;;;;;;6063135;23;20026;-82
2022/09/24 12:27:30;;;;;;;0.70;0.40;;;20.50;99.90;;;;;;6087005;23;20018;-82
2022/09/24 12:33:01;;;;;;;0.43;0.30;;;20.70;99.90;;;;;;6092931;23;20014;-81
2022/09/24 12:36:04;;;;;;;0.57;0.40;;;20.70;99.90;;;;;;6062579;23;20431;-81
2022/09/24 12:38:41;;;;;;;1.55;0.75;;;20.40;99.90;;;;;;6042854;23;20443;-81
2022/09/24 12:41:24;;;;;;;1.30;0.70;;;19.70;99.90;;;;;;6088020;23;20026;-81
2022/09/24 12:44:00;;;;;;;2.30;1.00;;;19.30;99.90;;;;;;6087352;23;20026;-82
2022/09/24 12:46:37;;;;;;;1.33;0.55;;;19.60;99.90;;;;;;6062728;23;20502;-82
2022/09/24 12:49:18;;;;;;;0.65;0.40;;;20.20;99.90;;;;;;6065887;23;20022;-81
2022/09/24 12:51:46;;;;;;;1.05;0.52;;;20.40;99.90;;;;;;6088213;23;20030;-81
2022/09/24 12:54:25;;;;;;;1.17;0.52;;;20.30;99.90;;;;;;6087757;23;20426;-82
2022/09/24 12:57:12;;;;;;;0.75;0.60;;;20.00;99.60;;;;;;6063944;23;20022;-81
2022/09/24 12:59:52;;;;;;;0.95;0.65;;;19.50;99.90;;;;;;6086319;23;20029;-81
2022/09/24 13:02:24;;;;;;;1.20;0.50;;;19.40;99.80;;;;;;6062493;23;20026;-82
2022/09/24 13:05:16;;;;;;;0.73;0.50;;;20.00;99.50;;;;;;6087711;23;20550;-83
2022/09/24 13:07:57;;;;;;;0.40;0.40;;;20.80;99.50;;;;;;6034008;23;20018;-82
2022/09/24 13:10:30;;;;;;;0.57;0.50;;;21.70;98.40;;;;;;6088774;23;20021;-82
2022/09/24 13:12:58;;;;;;;0.70;0.50;;;22.30;97.20;;;;;;6064996;23;20125;-82
2022/09/24 13:15:32;;;;;;;0.50;0.50;;;22.70;95.60;;;;;;6089724;23;20037;-82
2022/09/24 13:18:03;;;;;;;0.70;0.40;;;23.10;96.20;;;;;;6088369;23;20018;-81
2022/09/24 13:20:30;;;;;;;2.25;0.82;;;23.70;96.30;;;;;;6089478;23;20025;-83
2022/09/24 13:22:58;;;;;;;0.50;0.30;;;23.80;95.60;;;;;;6087873;23;20017;-83
2022/09/24 13:25:26;;;;;;;0.65;0.47;;;23.30;96.30;;;;;;6089098;23;20092;-81
2022/09/24 13:28:01;;;;;;;1.15;0.68;;;23.60;95.80;;;;;;6089382;23;20026;-83
2022/09/24 13:30:38;;;;;;;1.35;0.65;;;23.60;95.10;;;;;;6088718;23;20018;-82
2022/09/24 13:33:08;;;;;;;1.77;0.60;;;23.80;94.50;;;;;;6065009;23;20085;-82
2022/09/24 13:36:05;;;;;;;1.92;0.68;;;23.70;93.70;;;;;;6114030;23;20017;-83